sensor_id;sensor_type;location;lat;lon;timestamp;temperature;humidity
52459;DHT22;38372;52.902;6.024;2022-12-29T00:01:29;10.40;99.90
52459;DHT22;38372;52.902;6.024;2022-12-29T00:03:55;10.40;99.90
52459;DHT22;38372;52.902;6.024;2022-12-29T00:06:21;10.40;99.90
52459;DHT22;38372;52.902;6.024;2022-12-29T00:08:47;10.40;99.90
52459;DHT22;38372;52.902;6.024;2022-12-29T00:11:20;10.40;99.90
52459;DHT22;38372;52.902;6.024;2022-12-29T00:13:46;10.40;99.90
52459;DHT22;38372;52.902;6.024;2022-12-29T00:16:34;10.40;99.90
52459;DHT22;38372;52.902;6.024;2022-12-29T00:19:00;10.40;99.90
52459;DHT22;38372;52.902;6.024;2022-12-29T00:21:26;10.40;99.90
52459;DHT22;38372;52.902;6.024;2022-12-29T00:24:19;10.40;99.90
52459;DHT22;38372;52.902;6.024;2022-12-29T00:29:49;10.40;99.90
52459;DHT22;38372;52.902;6.024;2022-12-29T00:32:35;10.40;99.90
52459;DHT22;38372;52.902;6.024;2022-12-29T00:35:32;10.50;99.90
52459;DHT22;38372;52.902;6.024;2022-12-29T00:38:02;10.50;99.90
52459;DHT22;38372;52.902;6.024;2022-12-29T00:40:47;10.50;99.90
52459;DHT22;38372;52.902;6.024;2022-12-29T00:43:31;10.50;99.90
52459;DHT22;38372;52.902;6.024;2022-12-29T00:46:15;10.50;99.90
52459;DHT22;38372;52.902;6.024;2022-12-29T00:48:41;10.50;99.90
52459;DHT22;38372;52.902;6.024;2022-12-29T00:51:25;10.60;99.90
52459;DHT22;38372;52.902;6.024;2022-12-29T00:53:51;10.50;99.90
52459;DHT22;38372;52.902;6.024;2022-12-29T00:56:17;10.60;99.90
52459;DHT22;38372;52.902;6.024;2022-12-29T00:58:42;10.60;99.90
52459;DHT22;38372;52.902;6.024;2022-12-29T01:01:09;10.60;99.90
52459;DHT22;38372;52.902;6.024;2022-12-29T01:03:36;10.60;99.90
52459;DHT22;38372;52.902;6.024;2022-12-29T01:06:10;10.60;99.90
52459;DHT22;38372;52.902;6.024;2022-12-29T01:08:36;10.60;99.90
52459;DHT22;38372;52.902;6.024;2022-12-29T01:11:09;10.60;99.90
52459;DHT22;38372;52.902;6.024;2022-12-29T01:13:35;10.60;99.90
52459;DHT22;38372;52.902;6.024;2022-12-29T01:16:02;10.60;99.90
52459;DHT22;38372;52.902;6.024;2022-12-29T01:18:28;10.60;99.90
52459;DHT22;38372;52.902;6.024;2022-12-29T01:21:02;10.60;99.90
52459;DHT22;38372;52.902;6.024;2022-12-29T01:23:29;10.60;99.90
52459;DHT22;38372;52.902;6.024;2022-12-29T01:25:55;10.60;99.90
52459;DHT22;38372;52.902;6.024;2022-12-29T01:28:21;10.60;99.90
52459;DHT22;38372;52.902;6.024;2022-12-29T01:30:47;10.60;99.90
52459;DHT22;38372;52.902;6.024;2022-12-29T01:33:13;10.60;99.90
52459;DHT22;38372;52.902;6.024;2022-12-29T01:35:39;10.70;99.90
52459;DHT22;38372;52.902;6.024;2022-12-29T01:38:05;10.60;99.90
52459;DHT22;38372;52.902;6.024;2022-12-29T01:40:31;10.70;99.90
52459;DHT22;38372;52.902;6.024;2022-12-29T01:42:57;10.70;99.90
52459;DHT22;38372;52.902;6.024;2022-12-29T01:45:23;10.70;99.90
52459;DHT22;38372;52.902;6.024;2022-12-29T01:48:01;10.80;99.90
52459;DHT22;38372;52.902;6.024;2022-12-29T01:50:33;10.80;99.90
52459;DHT22;38372;52.902;6.024;2022-12-29T01:53:09;10.80;99.90
52459;DHT22;38372;52.902;6.024;2022-12-29T01:55:43;10.80;99.90
52459;DHT22;38372;52.902;6.024;2022-12-29T01:58:12;10.80;99.90
52459;DHT22;38372;52.902;6.024;2022-12-29T02:00:38;10.80;99.90
52459;DHT22;38372;52.902;6.024;2022-12-29T02:03:06;10.90;99.90
52459;DHT22;38372;52.902;6.024;2022-12-29T02:05:56;10.90;99.90
52459;DHT22;38372;52.902;6.024;2022-12-29T02:08:28;10.90;99.90
52459;DHT22;38372;52.902;6.024;2022-12-29T02:10:56;10.90;99.90
52459;DHT22;38372;52.902;6.024;2022-12-29T02:13:26;10.90;99.90
52459;DHT22;38372;52.902;6.024;2022-12-29T02:18:54;10.90;99.90
52459;DHT22;38372;52.902;6.024;2022-12-29T02:30:05;11.00;99.90
52459;DHT22;38372;52.902;6.024;2022-12-29T02:35:42;11.00;99.90
52459;DHT22;38372;52.902;6.024;2022-12-29T02:46:36;10.90;99.90
52459;DHT22;38372;52.902;6.024;2022-12-29T02:49:08;10.80;99.90
52459;DHT22;38372;52.902;6.024;2022-12-29T02:52:21;10.80;99.90
52459;DHT22;38372;52.902;6.024;2022-12-29T02:54:27;10.70;99.90
52459;DHT22;38372;52.902;6.024;2022-12-29T02:59:53;10.60;99.90
52459;DHT22;38372;52.902;6.024;2022-12-29T03:10:41;10.50;99.90
52459;DHT22;38372;52.902;6.024;2022-12-29T03:13:49;10.40;99.90
52459;DHT22;38372;52.902;6.024;2022-12-29T03:16:47;10.30;99.90
52459;DHT22;38372;52.902;6.024;2022-12-29T03:19:21;10.30;99.90
52459;DHT22;38372;52.902;6.024;2022-12-29T03:21:51;10.30;99.90
52459;DHT22;38372;52.902;6.024;2022-12-29T03:24:43;10.30;99.90
52459;DHT22;38372;52.902;6.024;2022-12-29T03:27:13;10.30;99.90
52459;DHT22;38372;52.902;6.024;2022-12-29T03:29:48;10.30;99.90
52459;DHT22;38372;52.902;6.024;2022-12-29T03:32:20;10.30;99.90
52459;DHT22;38372;52.902;6.024;2022-12-29T03:34:49;10.30;99.90
52459;DHT22;38372;52.902;6.024;2022-12-29T03:37:18;10.30;99.90
52459;DHT22;38372;52.902;6.024;2022-12-29T03:39:46;10.30;99.90
52459;DHT22;38372;52.902;6.024;2022-12-29T03:42:19;10.30;99.90
52459;DHT22;38372;52.902;6.024;2022-12-29T03:44:45;10.40;99.90
52459;DHT22;38372;52.902;6.024;2022-12-29T03:47:13;10.40;99.90
52459;DHT22;38372;52.902;6.024;2022-12-29T03:49:39;10.40;99.90
52459;DHT22;38372;52.902;6.024;2022-12-29T03:52:05;10.40;99.90
52459;DHT22;38372;52.902;6.024;2022-12-29T03:54:31;10.40;99.90
52459;DHT22;38372;52.902;6.024;2022-12-29T03:56:57;10.40;99.90
52459;DHT22;38372;52.902;6.024;2022-12-29T03:59:23;10.40;99.90
52459;DHT22;38372;52.902;6.024;2022-12-29T04:01:49;10.40;99.90
52459;DHT22;38372;52.902;6.024;2022-12-29T04:04:15;10.40;99.90
52459;DHT22;38372;52.902;6.024;2022-12-29T04:06:41;10.40;99.90
52459;DHT22;38372;52.902;6.024;2022-12-29T04:09:07;10.40;99.90
52459;DHT22;38372;52.902;6.024;2022-12-29T04:11:33;10.40;99.90
52459;DHT22;38372;52.902;6.024;2022-12-29T04:13:58;10.30;99.90
52459;DHT22;38372;52.902;6.024;2022-12-29T04:16:24;10.30;99.90
52459;DHT22;38372;52.902;6.024;2022-12-29T04:18:50;10.20;99.90
52459;DHT22;38372;52.902;6.024;2022-12-29T04:21:16;10.20;99.90
52459;DHT22;38372;52.902;6.024;2022-12-29T04:23:41;10.10;99.90
52459;DHT22;38372;52.902;6.024;2022-12-29T04:26:08;10.10;99.90
52459;DHT22;38372;52.902;6.024;2022-12-29T04:28:35;10.10;99.90
52459;DHT22;38372;52.902;6.024;2022-12-29T04:31:02;10.10;99.90
52459;DHT22;38372;52.902;6.024;2022-12-29T04:33:28;10.00;99.90
52459;DHT22;38372;52.902;6.024;2022-12-29T04:35:54;10.00;99.90
52459;DHT22;38372;52.902;6.024;2022-12-29T04:38:21;9.90;99.90
52459;DHT22;38372;52.902;6.024;2022-12-29T04:40:48;9.90;99.90
52459;DHT22;38372;52.902;6.024;2022-12-29T04:43:14;9.90;99.90
52459;DHT22;38372;52.902;6.024;2022-12-29T04:45:44;9.80;99.90
52459;DHT22;38372;52.902;6.024;2022-12-29T04:48:10;9.70;99.90
52459;DHT22;38372;52.902;6.024;2022-12-29T04:50:36;9.70;99.90
52459;DHT22;38372;52.902;6.024;2022-12-29T04:53:02;9.70;99.90
52459;DHT22;38372;52.902;6.024;2022-12-29T04:55:28;9.70;99.90
52459;DHT22;38372;52.902;6.024;2022-12-29T04:57:53;9.60;99.90
52459;DHT22;38372;52.902;6.024;2022-12-29T05:00:19;9.60;99.90
52459;DHT22;38372;52.902;6.024;2022-12-29T05:02:45;9.50;99.90
52459;DHT22;38372;52.902;6.024;2022-12-29T05:05:11;9.60;99.90
52459;DHT22;38372;52.902;6.024;2022-12-29T05:07:37;9.50;99.90
52459;DHT22;38372;52.902;6.024;2022-12-29T05:10:03;9.50;99.90
52459;DHT22;38372;52.902;6.024;2022-12-29T05:12:31;9.50;99.90
52459;DHT22;38372;52.902;6.024;2022-12-29T05:14:56;9.50;99.90
52459;DHT22;38372;52.902;6.024;2022-12-29T05:17:22;9.50;99.90
52459;DHT22;38372;52.902;6.024;2022-12-29T05:19:48;9.50;99.90
52459;DHT22;38372;52.902;6.024;2022-12-29T05:22:14;9.40;99.90
52459;DHT22;38372;52.902;6.024;2022-12-29T05:24:40;9.40;99.90
52459;DHT22;38372;52.902;6.024;2022-12-29T05:27:05;9.40;99.90
52459;DHT22;38372;52.902;6.024;2022-12-29T05:29:31;9.40;99.90
52459;DHT22;38372;52.902;6.024;2022-12-29T05:31:59;9.40;99.90
52459;DHT22;38372;52.902;6.024;2022-12-29T05:34:25;9.30;99.90
52459;DHT22;38372;52.902;6.024;2022-12-29T05:36:52;9.40;99.90
52459;DHT22;38372;52.902;6.024;2022-12-29T05:39:18;9.40;99.90
52459;DHT22;38372;52.902;6.024;2022-12-29T05:41:43;9.40;99.90
52459;DHT22;38372;52.902;6.024;2022-12-29T05:44:10;9.40;99.90
52459;DHT22;38372;52.902;6.024;2022-12-29T05:46:36;9.30;99.90
52459;DHT22;38372;52.902;6.024;2022-12-29T05:49:02;9.30;99.90
52459;DHT22;38372;52.902;6.024;2022-12-29T05:51:28;9.30;99.90
52459;DHT22;38372;52.902;6.024;2022-12-29T05:53:54;9.30;99.90
52459;DHT22;38372;52.902;6.024;2022-12-29T05:56:19;9.30;99.90
52459;DHT22;38372;52.902;6.024;2022-12-29T05:58:45;9.30;99.90
52459;DHT22;38372;52.902;6.024;2022-12-29T06:01:11;9.30;99.90
52459;DHT22;38372;52.902;6.024;2022-12-29T06:03:37;9.30;99.90
52459;DHT22;38372;52.902;6.024;2022-12-29T06:06:03;9.30;99.90
52459;DHT22;38372;52.902;6.024;2022-12-29T06:08:28;9.20;99.90
52459;DHT22;38372;52.902;6.024;2022-12-29T06:10:54;9.20;99.90
52459;DHT22;38372;52.902;6.024;2022-12-29T06:13:20;9.30;99.90
52459;DHT22;38372;52.902;6.024;2022-12-29T06:15:48;9.30;99.90
52459;DHT22;38372;52.902;6.024;2022-12-29T06:18:14;9.30;99.90
52459;DHT22;38372;52.902;6.024;2022-12-29T06:20:40;9.30;99.90
52459;DHT22;38372;52.902;6.024;2022-12-29T06:23:06;9.40;99.90
52459;DHT22;38372;52.902;6.024;2022-12-29T06:25:32;9.30;99.90
52459;DHT22;38372;52.902;6.024;2022-12-29T06:27:59;9.30;99.90
52459;DHT22;38372;52.902;6.024;2022-12-29T06:30:25;9.30;99.90
52459;DHT22;38372;52.902;6.024;2022-12-29T06:32:51;9.30;99.90
52459;DHT22;38372;52.902;6.024;2022-12-29T06:35:17;9.40;99.90
52459;DHT22;38372;52.902;6.024;2022-12-29T06:37:43;9.40;99.90
52459;DHT22;38372;52.902;6.024;2022-12-29T06:40:09;9.40;99.90
52459;DHT22;38372;52.902;6.024;2022-12-29T06:42:35;9.40;99.90
52459;DHT22;38372;52.902;6.024;2022-12-29T06:45:01;9.40;99.90
52459;DHT22;38372;52.902;6.024;2022-12-29T06:47:27;9.40;99.90
52459;DHT22;38372;52.902;6.024;2022-12-29T06:49:53;9.40;99.90
52459;DHT22;38372;52.902;6.024;2022-12-29T06:52:19;9.40;99.90
52459;DHT22;38372;52.902;6.024;2022-12-29T06:54:45;9.40;99.90
52459;DHT22;38372;52.902;6.024;2022-12-29T06:57:10;9.40;99.90
52459;DHT22;38372;52.902;6.024;2022-12-29T06:59:36;9.40;99.90
52459;DHT22;38372;52.902;6.024;2022-12-29T07:02:02;9.50;99.90
52459;DHT22;38372;52.902;6.024;2022-12-29T07:04:28;9.50;99.90
52459;DHT22;38372;52.902;6.024;2022-12-29T07:06:54;9.50;99.90
52459;DHT22;38372;52.902;6.024;2022-12-29T07:09:20;9.50;99.90
52459;DHT22;38372;52.902;6.024;2022-12-29T07:11:46;9.50;99.90
52459;DHT22;38372;52.902;6.024;2022-12-29T07:14:12;9.60;99.90
52459;DHT22;38372;52.902;6.024;2022-12-29T07:16:38;9.60;99.90
52459;DHT22;38372;52.902;6.024;2022-12-29T07:19:04;9.60;99.90
52459;DHT22;38372;52.902;6.024;2022-12-29T07:21:30;9.60;99.90
52459;DHT22;38372;52.902;6.024;2022-12-29T07:23:56;9.60;99.90
52459;DHT22;38372;52.902;6.024;2022-12-29T07:26:22;9.60;99.90
52459;DHT22;38372;52.902;6.024;2022-12-29T07:28:48;9.60;99.90
52459;DHT22;38372;52.902;6.024;2022-12-29T07:31:15;9.60;99.90
52459;DHT22;38372;52.902;6.024;2022-12-29T07:33:42;9.60;99.90
52459;DHT22;38372;52.902;6.024;2022-12-29T07:36:09;9.60;99.90
52459;DHT22;38372;52.902;6.024;2022-12-29T07:38:35;9.60;99.90
52459;DHT22;38372;52.902;6.024;2022-12-29T07:41:01;9.60;99.90
52459;DHT22;38372;52.902;6.024;2022-12-29T07:43:27;9.60;99.90
52459;DHT22;38372;52.902;6.024;2022-12-29T07:45:52;9.70;99.90
52459;DHT22;38372;52.902;6.024;2022-12-29T07:48:18;9.60;99.90
52459;DHT22;38372;52.902;6.024;2022-12-29T07:50:44;9.70;99.90
52459;DHT22;38372;52.902;6.024;2022-12-29T07:53:10;9.60;99.90
52459;DHT22;38372;52.902;6.024;2022-12-29T07:55:36;9.60;99.90
52459;DHT22;38372;52.902;6.024;2022-12-29T07:58:02;9.60;99.90
52459;DHT22;38372;52.902;6.024;2022-12-29T08:00:28;9.60;99.90
52459;DHT22;38372;52.902;6.024;2022-12-29T08:02:53;9.60;99.90
52459;DHT22;38372;52.902;6.024;2022-12-29T08:05:19;9.60;99.90
52459;DHT22;38372;52.902;6.024;2022-12-29T08:07:46;9.60;99.90
52459;DHT22;38372;52.902;6.024;2022-12-29T08:10:12;9.60;99.90
52459;DHT22;38372;52.902;6.024;2022-12-29T08:12:39;9.60;99.90
52459;DHT22;38372;52.902;6.024;2022-12-29T08:15:07;9.60;99.90
52459;DHT22;38372;52.902;6.024;2022-12-29T08:17:33;9.50;99.90
52459;DHT22;38372;52.902;6.024;2022-12-29T08:19:59;9.50;99.90
52459;DHT22;38372;52.902;6.024;2022-12-29T08:22:25;9.60;99.90
52459;DHT22;38372;52.902;6.024;2022-12-29T08:24:51;9.60;99.90
52459;DHT22;38372;52.902;6.024;2022-12-29T08:27:17;9.60;99.90
52459;DHT22;38372;52.902;6.024;2022-12-29T08:29:43;9.60;99.90
52459;DHT22;38372;52.902;6.024;2022-12-29T08:32:09;9.60;99.90
52459;DHT22;38372;52.902;6.024;2022-12-29T08:34:35;9.60;99.90
52459;DHT22;38372;52.902;6.024;2022-12-29T08:37:01;9.60;99.90
52459;DHT22;38372;52.902;6.024;2022-12-29T08:39:26;9.60;99.90
52459;DHT22;38372;52.902;6.024;2022-12-29T08:41:53;9.60;99.90
52459;DHT22;38372;52.902;6.024;2022-12-29T08:44:18;9.60;99.90
52459;DHT22;38372;52.902;6.024;2022-12-29T08:46:44;9.70;99.90
52459;DHT22;38372;52.902;6.024;2022-12-29T08:49:10;9.70;99.90
52459;DHT22;38372;52.902;6.024;2022-12-29T08:51:36;9.70;99.90
52459;DHT22;38372;52.902;6.024;2022-12-29T08:54:02;9.70;99.90
52459;DHT22;38372;52.902;6.024;2022-12-29T08:56:28;9.70;99.90
52459;DHT22;38372;52.902;6.024;2022-12-29T08:58:54;9.70;99.90
52459;DHT22;38372;52.902;6.024;2022-12-29T09:01:20;9.70;99.90
52459;DHT22;38372;52.902;6.024;2022-12-29T09:03:47;9.70;99.90
52459;DHT22;38372;52.902;6.024;2022-12-29T09:06:14;9.70;99.90
52459;DHT22;38372;52.902;6.024;2022-12-29T09:08:40;9.70;99.90
52459;DHT22;38372;52.902;6.024;2022-12-29T09:11:12;9.60;99.90
52459;DHT22;38372;52.902;6.024;2022-12-29T09:13:38;9.50;99.90
52459;DHT22;38372;52.902;6.024;2022-12-29T09:16:04;9.50;99.90
52459;DHT22;38372;52.902;6.024;2022-12-29T09:18:29;9.50;99.90
52459;DHT22;38372;52.902;6.024;2022-12-29T09:21:03;9.50;99.90
52459;DHT22;38372;52.902;6.024;2022-12-29T09:23:30;9.50;99.90
52459;DHT22;38372;52.902;6.024;2022-12-29T09:25:56;9.50;99.90
52459;DHT22;38372;52.902;6.024;2022-12-29T09:28:23;9.60;99.90
52459;DHT22;38372;52.902;6.024;2022-12-29T09:30:50;9.50;99.90
52459;DHT22;38372;52.902;6.024;2022-12-29T09:33:16;9.50;99.90
52459;DHT22;38372;52.902;6.024;2022-12-29T09:35:43;9.50;99.90
52459;DHT22;38372;52.902;6.024;2022-12-29T09:38:09;9.50;99.90
52459;DHT22;38372;52.902;6.024;2022-12-29T09:40:35;9.40;99.90
52459;DHT22;38372;52.902;6.024;2022-12-29T09:43:54;9.30;99.90
52459;DHT22;38372;52.902;6.024;2022-12-29T09:46:15;9.40;99.90
52459;DHT22;38372;52.902;6.024;2022-12-29T09:48:49;9.30;99.90
52459;DHT22;38372;52.902;6.024;2022-12-29T09:51:21;9.30;99.90
52459;DHT22;38372;52.902;6.024;2022-12-29T09:56:44;9.20;99.90
52459;DHT22;38372;52.902;6.024;2022-12-29T09:59:15;9.10;99.90
52459;DHT22;38372;52.902;6.024;2022-12-29T10:04:48;9.10;99.90
52459;DHT22;38372;52.902;6.024;2022-12-29T10:12:47;9.00;99.90
52459;DHT22;38372;52.902;6.024;2022-12-29T10:24:09;8.90;99.90
52459;DHT22;38372;52.902;6.024;2022-12-29T10:26:40;8.90;99.90
52459;DHT22;38372;52.902;6.024;2022-12-29T10:29:20;8.90;99.90
52459;DHT22;38372;52.902;6.024;2022-12-29T10:31:54;9.00;99.90
52459;DHT22;38372;52.902;6.024;2022-12-29T10:34:22;9.00;99.90
52459;DHT22;38372;52.902;6.024;2022-12-29T10:39:55;8.90;99.90
52459;DHT22;38372;52.902;6.024;2022-12-29T10:42:37;9.00;99.90
52459;DHT22;38372;52.902;6.024;2022-12-29T10:45:10;9.00;99.90
52459;DHT22;38372;52.902;6.024;2022-12-29T10:47:43;9.00;99.90
52459;DHT22;38372;52.902;6.024;2022-12-29T10:50:12;8.90;99.90
52459;DHT22;38372;52.902;6.024;2022-12-29T10:52:39;8.90;99.90
52459;DHT22;38372;52.902;6.024;2022-12-29T10:55:12;8.90;99.90
52459;DHT22;38372;52.902;6.024;2022-12-29T10:57:44;8.90;99.90
52459;DHT22;38372;52.902;6.024;2022-12-29T11:00:11;8.90;99.90
52459;DHT22;38372;52.902;6.024;2022-12-29T11:08:26;8.70;99.90
52459;DHT22;38372;52.902;6.024;2022-12-29T11:11:02;8.70;99.90
52459;DHT22;38372;52.902;6.024;2022-12-29T11:13:33;8.80;99.90
52459;DHT22;38372;52.902;6.024;2022-12-29T11:16:00;8.80;99.90
52459;DHT22;38372;52.902;6.024;2022-12-29T11:18:33;9.10;99.90
52459;DHT22;38372;52.902;6.024;2022-12-29T11:21:04;9.50;99.90
52459;DHT22;38372;52.902;6.024;2022-12-29T11:23:35;9.80;99.90
52459;DHT22;38372;52.902;6.024;2022-12-29T11:26:11;10.00;99.90
52459;DHT22;38372;52.902;6.024;2022-12-29T11:28:38;10.30;99.90
52459;DHT22;38372;52.902;6.024;2022-12-29T11:31:06;10.80;99.90
52459;DHT22;38372;52.902;6.024;2022-12-29T11:33:34;11.00;99.90
52459;DHT22;38372;52.902;6.024;2022-12-29T11:36:26;10.90;99.90
52459;DHT22;38372;52.902;6.024;2022-12-29T11:38:54;10.70;99.90
52459;DHT22;38372;52.902;6.024;2022-12-29T11:41:23;10.50;99.90
52459;DHT22;38372;52.902;6.024;2022-12-29T11:43:52;10.70;99.90
52459;DHT22;38372;52.902;6.024;2022-12-29T11:46:25;10.70;99.90
52459;DHT22;38372;52.902;6.024;2022-12-29T11:48:53;10.70;99.90
52459;DHT22;38372;52.902;6.024;2022-12-29T11:51:23;10.70;99.90
52459;DHT22;38372;52.902;6.024;2022-12-29T11:53:54;10.80;99.90
52459;DHT22;38372;52.902;6.024;2022-12-29T11:56:22;10.70;99.90
52459;DHT22;38372;52.902;6.024;2022-12-29T11:58:56;10.50;99.90
52459;DHT22;38372;52.902;6.024;2022-12-29T12:01:37;10.30;99.90
52459;DHT22;38372;52.902;6.024;2022-12-29T12:04:16;10.10;99.90
52459;DHT22;38372;52.902;6.024;2022-12-29T12:07:18;10.20;99.90
52459;DHT22;38372;52.902;6.024;2022-12-29T12:09:50;10.40;99.90
52459;DHT22;38372;52.902;6.024;2022-12-29T12:12:29;10.50;99.90
52459;DHT22;38372;52.902;6.024;2022-12-29T12:14:58;10.50;99.90
52459;DHT22;38372;52.902;6.024;2022-12-29T12:26:12;10.50;99.90
52459;DHT22;38372;52.902;6.024;2022-12-29T12:31:51;10.30;99.90
52459;DHT22;38372;52.902;6.024;2022-12-29T12:34:26;10.20;99.90
52459;DHT22;38372;52.902;6.024;2022-12-29T12:51:00;10.60;99.90
52459;DHT22;38372;52.902;6.024;2022-12-29T13:10:34;10.20;99.90
52459;DHT22;38372;52.902;6.024;2022-12-29T13:18:15;10.00;99.90
52459;DHT22;38372;52.902;6.024;2022-12-29T13:21:01;9.90;99.90
52459;DHT22;38372;52.902;6.024;2022-12-29T13:23:34;9.90;99.90
52459;DHT22;38372;52.902;6.024;2022-12-29T13:26:22;9.80;99.90
52459;DHT22;38372;52.902;6.024;2022-12-29T13:34:26;9.70;99.90
52459;DHT22;38372;52.902;6.024;2022-12-29T13:37:06;9.70;99.90
52459;DHT22;38372;52.902;6.024;2022-12-29T13:39:38;9.70;99.90
52459;DHT22;38372;52.902;6.024;2022-12-29T13:42:05;9.60;99.90
52459;DHT22;38372;52.902;6.024;2022-12-29T13:44:37;9.60;99.90
52459;DHT22;38372;52.902;6.024;2022-12-29T13:47:31;9.60;99.90
52459;DHT22;38372;52.902;6.024;2022-12-29T13:50:00;9.50;99.90
52459;DHT22;38372;52.902;6.024;2022-12-29T13:55:29;9.40;99.90
52459;DHT22;38372;52.902;6.024;2022-12-29T14:01:20;9.30;99.90
52459;DHT22;38372;52.902;6.024;2022-12-29T14:03:49;9.20;99.90
52459;DHT22;38372;52.902;6.024;2022-12-29T14:08:49;9.10;99.90
52459;DHT22;38372;52.902;6.024;2022-12-29T14:11:16;9.10;99.90
52459;DHT22;38372;52.902;6.024;2022-12-29T14:13:45;9.10;99.90
52459;DHT22;38372;52.902;6.024;2022-12-29T14:16:32;9.10;99.90
52459;DHT22;38372;52.902;6.024;2022-12-29T14:19:16;9.10;99.90
52459;DHT22;38372;52.902;6.024;2022-12-29T14:21:55;9.10;99.90
52459;DHT22;38372;52.902;6.024;2022-12-29T14:24:39;9.10;99.90
52459;DHT22;38372;52.902;6.024;2022-12-29T14:35:01;9.00;99.90
52459;DHT22;38372;52.902;6.024;2022-12-29T14:38:15;8.90;99.90
52459;DHT22;38372;52.902;6.024;2022-12-29T14:40:41;8.90;99.90
52459;DHT22;38372;52.902;6.024;2022-12-29T14:43:13;8.90;99.90
52459;DHT22;38372;52.902;6.024;2022-12-29T14:45:43;8.90;99.90
52459;DHT22;38372;52.902;6.024;2022-12-29T14:51:00;8.80;99.90
52459;DHT22;38372;52.902;6.024;2022-12-29T14:56:10;8.70;99.90
52459;DHT22;38372;52.902;6.024;2022-12-29T15:01:47;8.70;99.90
52459;DHT22;38372;52.902;6.024;2022-12-29T15:04:20;8.70;99.90
52459;DHT22;38372;52.902;6.024;2022-12-29T15:06:48;8.60;99.90
52459;DHT22;38372;52.902;6.024;2022-12-29T15:14:35;8.50;99.90
52459;DHT22;38372;52.902;6.024;2022-12-29T15:17:30;8.50;99.90
52459;DHT22;38372;52.902;6.024;2022-12-29T15:19:58;8.50;99.90
52459;DHT22;38372;52.902;6.024;2022-12-29T15:22:25;8.50;99.90
52459;DHT22;38372;52.902;6.024;2022-12-29T15:25:02;8.40;99.90
52459;DHT22;38372;52.902;6.024;2022-12-29T15:27:31;8.40;99.90
52459;DHT22;38372;52.902;6.024;2022-12-29T15:29:59;8.30;99.90
52459;DHT22;38372;52.902;6.024;2022-12-29T15:32:29;8.30;99.90
52459;DHT22;38372;52.902;6.024;2022-12-29T15:34:57;8.30;99.90
52459;DHT22;38372;52.902;6.024;2022-12-29T15:37:28;8.30;99.90
52459;DHT22;38372;52.902;6.024;2022-12-29T15:39:57;8.30;99.90
52459;DHT22;38372;52.902;6.024;2022-12-29T15:44:58;8.30;99.90
52459;DHT22;38372;52.902;6.024;2022-12-29T15:47:25;8.40;99.90
52459;DHT22;38372;52.902;6.024;2022-12-29T15:50:06;8.40;99.90
52459;DHT22;38372;52.902;6.024;2022-12-29T15:52:34;8.40;99.90
52459;DHT22;38372;52.902;6.024;2022-12-29T15:55:01;8.50;99.90
52459;DHT22;38372;52.902;6.024;2022-12-29T15:57:37;8.50;99.90
52459;DHT22;38372;52.902;6.024;2022-12-29T16:00:04;8.50;99.90
52459;DHT22;38372;52.902;6.024;2022-12-29T16:02:42;8.60;99.90
52459;DHT22;38372;52.902;6.024;2022-12-29T16:05:09;8.60;99.90
52459;DHT22;38372;52.902;6.024;2022-12-29T16:07:35;8.60;99.90
52459;DHT22;38372;52.902;6.024;2022-12-29T16:10:01;8.70;99.90
52459;DHT22;38372;52.902;6.024;2022-12-29T16:12:39;8.70;99.90
52459;DHT22;38372;52.902;6.024;2022-12-29T16:15:13;8.70;99.90
52459;DHT22;38372;52.902;6.024;2022-12-29T16:17:48;8.80;99.90
52459;DHT22;38372;52.902;6.024;2022-12-29T16:20:20;8.70;99.90
52459;DHT22;38372;52.902;6.024;2022-12-29T16:22:49;8.70;99.90
52459;DHT22;38372;52.902;6.024;2022-12-29T16:25:29;8.70;99.90
52459;DHT22;38372;52.902;6.024;2022-12-29T16:27:58;8.70;99.90
52459;DHT22;38372;52.902;6.024;2022-12-29T16:30:34;8.60;99.90
52459;DHT22;38372;52.902;6.024;2022-12-29T16:33:45;8.60;99.90
52459;DHT22;38372;52.902;6.024;2022-12-29T16:41:52;8.30;99.90
52459;DHT22;38372;52.902;6.024;2022-12-29T16:44:21;8.30;99.90
52459;DHT22;38372;52.902;6.024;2022-12-29T16:47:00;8.20;99.90
52459;DHT22;38372;52.902;6.024;2022-12-29T16:49:27;8.20;99.90
52459;DHT22;38372;52.902;6.024;2022-12-29T16:51:54;8.20;99.90
52459;DHT22;38372;52.902;6.024;2022-12-29T16:54:25;8.10;99.90
52459;DHT22;38372;52.902;6.024;2022-12-29T16:56:53;8.10;99.90
52459;DHT22;38372;52.902;6.024;2022-12-29T16:59:31;8.10;99.90
52459;DHT22;38372;52.902;6.024;2022-12-29T17:01:58;8.00;99.90
52459;DHT22;38372;52.902;6.024;2022-12-29T17:04:24;7.90;99.90
52459;DHT22;38372;52.902;6.024;2022-12-29T17:06:50;7.90;99.90
52459;DHT22;38372;52.902;6.024;2022-12-29T17:09:18;7.90;99.90
52459;DHT22;38372;52.902;6.024;2022-12-29T17:11:47;7.90;99.90
52459;DHT22;38372;52.902;6.024;2022-12-29T17:17:00;7.80;99.90
52459;DHT22;38372;52.902;6.024;2022-12-29T17:19:30;7.80;99.90
52459;DHT22;38372;52.902;6.024;2022-12-29T17:21:56;7.80;99.90
52459;DHT22;38372;52.902;6.024;2022-12-29T17:24:22;7.80;99.90
52459;DHT22;38372;52.902;6.024;2022-12-29T17:26:51;7.80;99.90
52459;DHT22;38372;52.902;6.024;2022-12-29T17:29:38;7.80;99.90
52459;DHT22;38372;52.902;6.024;2022-12-29T17:32:09;7.80;99.90
52459;DHT22;38372;52.902;6.024;2022-12-29T17:34:37;7.80;99.90
52459;DHT22;38372;52.902;6.024;2022-12-29T17:39:50;7.80;99.90
52459;DHT22;38372;52.902;6.024;2022-12-29T17:42:16;7.80;99.90
52459;DHT22;38372;52.902;6.024;2022-12-29T17:44:43;7.90;99.90
52459;DHT22;38372;52.902;6.024;2022-12-29T17:47:12;7.90;99.90
52459;DHT22;38372;52.902;6.024;2022-12-29T17:49:37;7.90;99.90
52459;DHT22;38372;52.902;6.024;2022-12-29T17:52:03;7.90;99.90
52459;DHT22;38372;52.902;6.024;2022-12-29T17:54:32;8.00;99.90
52459;DHT22;38372;52.902;6.024;2022-12-29T17:56:58;8.00;99.90
52459;DHT22;38372;52.902;6.024;2022-12-29T17:59:24;8.10;99.90
52459;DHT22;38372;52.902;6.024;2022-12-29T18:01:50;8.10;99.90
52459;DHT22;38372;52.902;6.024;2022-12-29T18:04:18;8.10;99.90
52459;DHT22;38372;52.902;6.024;2022-12-29T18:06:45;8.10;99.90
52459;DHT22;38372;52.902;6.024;2022-12-29T18:09:12;8.00;99.90
52459;DHT22;38372;52.902;6.024;2022-12-29T18:11:39;8.00;99.90
52459;DHT22;38372;52.902;6.024;2022-12-29T18:14:10;8.00;99.90
52459;DHT22;38372;52.902;6.024;2022-12-29T18:16:36;8.00;99.90
52459;DHT22;38372;52.902;6.024;2022-12-29T18:19:02;8.00;99.90
52459;DHT22;38372;52.902;6.024;2022-12-29T18:21:28;7.90;99.90
52459;DHT22;38372;52.902;6.024;2022-12-29T18:23:53;7.80;99.90
52459;DHT22;38372;52.902;6.024;2022-12-29T18:26:22;7.80;99.90
52459;DHT22;38372;52.902;6.024;2022-12-29T18:28:48;7.80;99.90
52459;DHT22;38372;52.902;6.024;2022-12-29T18:31:24;7.90;99.90
52459;DHT22;38372;52.902;6.024;2022-12-29T18:33:51;7.90;99.90
52459;DHT22;38372;52.902;6.024;2022-12-29T18:36:18;7.90;99.90
52459;DHT22;38372;52.902;6.024;2022-12-29T18:38:44;7.90;99.90
52459;DHT22;38372;52.902;6.024;2022-12-29T18:41:20;7.90;99.90
52459;DHT22;38372;52.902;6.024;2022-12-29T18:43:46;7.80;99.90